sensor_id;sensor_type;location;lat;lon;timestamp;pressure;altitude;pressure_sealevel;temperature;humidity
33795;BME280;51430;52.242;21.118;2023-02-28T00:02:03;101846.25;;;-3.08;77.33
33795;BME280;51430;52.242;21.118;2023-02-28T00:04:50;101843.52;;;-3.12;77.22
33795;BME280;51430;52.242;21.118;2023-02-28T00:07:39;101844.34;;;-3.17;77.64
33795;BME280;51430;52.242;21.118;2023-02-28T00:10:28;101841.95;;;-3.21;77.90
33795;BME280;51430;52.242;21.118;2023-02-28T00:13:15;101843.81;;;-3.24;78.12
33795;BME280;51430;52.242;21.118;2023-02-28T00:16:06;101845.17;;;-3.24;78.36
33795;BME280;51430;52.242;21.118;2023-02-28T00:18:52;101845.86;;;-3.24;78.59
33795;BME280;51430;52.242;21.118;2023-02-28T00:21:39;101850.45;;;-3.26;78.55
33795;BME280;51430;52.242;21.118;2023-02-28T00:24:28;101847.02;;;-3.29;78.69
33795;BME280;51430;52.242;21.118;2023-02-28T00:27:14;101850.92;;;-3.32;78.88
33795;BME280;51430;52.242;21.118;2023-02-28T00:30:01;101853.48;;;-3.34;79.16
33795;BME280;51430;52.242;21.118;2023-02-28T00:32:48;101854.00;;;-3.34;79.39
33795;BME280;51430;52.242;21.118;2023-02-28T00:35:35;101857.23;;;-3.36;79.42
33795;BME280;51430;52.242;21.118;2023-02-28T00:38:21;101855.15;;;-3.39;79.29
33795;BME280;51430;52.242;21.118;2023-02-28T00:41:08;101857.38;;;-3.41;79.42
33795;BME280;51430;52.242;21.118;2023-02-28T00:43:55;101855.99;;;-3.43;79.61
33795;BME280;51430;52.242;21.118;2023-02-28T00:46:42;101857.67;;;-3.45;80.00
33795;BME280;51430;52.242;21.118;2023-02-28T00:49:28;101856.64;;;-3.48;79.98
33795;BME280;51430;52.242;21.118;2023-02-28T00:52:15;101853.39;;;-3.49;79.95
33795;BME280;51430;52.242;21.118;2023-02-28T00:55:02;101851.52;;;-3.50;79.96
33795;BME280;51430;52.242;21.118;2023-02-28T00:57:49;101851.16;;;-3.53;80.17
33795;BME280;51430;52.242;21.118;2023-02-28T01:00:35;101849.27;;;-3.56;80.20
33795;BME280;51430;52.242;21.118;2023-02-28T01:03:22;101849.94;;;-3.59;80.36
33795;BME280;51430;52.242;21.118;2023-02-28T01:06:09;101849.07;;;-3.60;80.93
33795;BME280;51430;52.242;21.118;2023-02-28T01:08:56;101844.46;;;-3.60;80.86
33795;BME280;51430;52.242;21.118;2023-02-28T01:11:42;101844.13;;;-3.62;80.78
33795;BME280;51430;52.242;21.118;2023-02-28T01:14:30;101844.10;;;-3.65;80.95
33795;BME280;51430;52.242;21.118;2023-02-28T01:17:17;101843.23;;;-3.68;81.12
33795;BME280;51430;52.242;21.118;2023-02-28T01:20:06;101850.02;;;-3.71;81.20
33795;BME280;51430;52.242;21.118;2023-02-28T01:22:53;101850.86;;;-3.74;81.67
33795;BME280;51430;52.242;21.118;2023-02-28T01:25:40;101847.98;;;-3.74;81.50
33795;BME280;51430;52.242;21.118;2023-02-28T01:28:26;101846.58;;;-3.76;81.90
33795;BME280;51430;52.242;21.118;2023-02-28T01:31:13;101849.13;;;-3.78;81.82
33795;BME280;51430;52.242;21.118;2023-02-28T01:34:01;101851.84;;;-3.79;81.75
33795;BME280;51430;52.242;21.118;2023-02-28T01:36:47;101854.05;;;-3.79;81.91
33795;BME280;51430;52.242;21.118;2023-02-28T01:39:34;101859.34;;;-3.80;81.82
33795;BME280;51430;52.242;21.118;2023-02-28T01:42:23;101860.34;;;-3.82;81.86
33795;BME280;51430;52.242;21.118;2023-02-28T01:45:23;101857.77;;;-3.87;81.98
33795;BME280;51430;52.242;21.118;2023-02-28T01:48:12;101862.33;;;-3.92;82.31
33795;BME280;51430;52.242;21.118;2023-02-28T01:51:03;101863.01;;;-3.92;82.53
33795;BME280;51430;52.242;21.118;2023-02-28T01:53:54;101860.92;;;-3.95;82.63
33795;BME280;51430;52.242;21.118;2023-02-28T01:56:51;101857.52;;;-3.95;83.02
33795;BME280;51430;52.242;21.118;2023-02-28T01:59:48;101860.44;;;-3.95;82.69
33795;BME280;51430;52.242;21.118;2023-02-28T02:02:37;101861.10;;;-3.96;82.58
33795;BME280;51430;52.242;21.118;2023-02-28T02:05:26;101859.56;;;-3.96;82.90
33795;BME280;51430;52.242;21.118;2023-02-28T02:08:22;101853.08;;;-3.98;82.67
33795;BME280;51430;52.242;21.118;2023-02-28T02:11:17;101858.01;;;-4.00;82.69
33795;BME280;51430;52.242;21.118;2023-02-28T02:14:13;101853.73;;;-4.03;82.95
33795;BME280;51430;52.242;21.118;2023-02-28T02:17:15;101853.19;;;-4.07;83.43
33795;BME280;51430;52.242;21.118;2023-02-28T02:23:40;101857.40;;;-4.12;83.72
33795;BME280;51430;52.242;21.118;2023-02-28T02:33:06;101854.84;;;-4.13;84.09
33795;BME280;51430;52.242;21.118;2023-02-28T02:41:53;101858.90;;;-4.15;84.28
33795;BME280;51430;52.242;21.118;2023-02-28T02:44:49;101862.32;;;-4.14;84.25
33795;BME280;51430;52.242;21.118;2023-02-28T02:47:37;101863.34;;;-4.14;84.21
33795;BME280;51430;52.242;21.118;2023-02-28T02:50:30;101862.31;;;-4.14;84.18
33795;BME280;51430;52.242;21.118;2023-02-28T02:53:23;101865.02;;;-4.16;84.36
33795;BME280;51430;52.242;21.118;2023-02-28T02:56:11;101865.54;;;-4.17;84.21
33795;BME280;51430;52.242;21.118;2023-02-28T02:59:08;101867.39;;;-4.18;84.16
33795;BME280;51430;52.242;21.118;2023-02-28T03:01:59;101871.80;;;-4.19;84.45
33795;BME280;51430;52.242;21.118;2023-02-28T03:04:58;101876.89;;;-4.21;84.54
33795;BME280;51430;52.242;21.118;2023-02-28T03:07:47;101875.33;;;-4.25;84.64
33795;BME280;51430;52.242;21.118;2023-02-28T03:10:39;101872.44;;;-4.24;84.54
33795;BME280;51430;52.242;21.118;2023-02-28T03:13:48;101869.18;;;-4.25;84.28
33795;BME280;51430;52.242;21.118;2023-02-28T03:16:49;101870.18;;;-4.29;84.32
33795;BME280;51430;52.242;21.118;2023-02-28T03:23:07;101871.20;;;-4.30;85.05
33795;BME280;51430;52.242;21.118;2023-02-28T03:26:02;101873.10;;;-4.27;85.18
33795;BME280;51430;52.242;21.118;2023-02-28T03:29:08;101870.41;;;-4.23;85.10
33795;BME280;51430;52.242;21.118;2023-02-28T03:34:43;101872.76;;;-4.26;84.67
33795;BME280;51430;52.242;21.118;2023-02-28T03:37:35;101875.30;;;-4.46;85.01
33795;BME280;51430;52.242;21.118;2023-02-28T03:40:29;101873.45;;;-4.43;85.08
33795;BME280;51430;52.242;21.118;2023-02-28T03:43:24;101873.66;;;-4.38;84.89
33795;BME280;51430;52.242;21.118;2023-02-28T03:46:15;101878.57;;;-4.42;84.94
33795;BME280;51430;52.242;21.118;2023-02-28T03:49:13;101882.48;;;-4.43;84.79
33795;BME280;51430;52.242;21.118;2023-02-28T03:52:03;101880.09;;;-4.43;84.45
33795;BME280;51430;52.242;21.118;2023-02-28T03:54:55;101883.80;;;-4.46;84.84
33795;BME280;51430;52.242;21.118;2023-02-28T03:57:56;101880.75;;;-4.45;85.07
33795;BME280;51430;52.242;21.118;2023-02-28T04:00:57;101884.44;;;-4.50;84.81
33795;BME280;51430;52.242;21.118;2023-02-28T04:03:45;101882.70;;;-4.55;85.00
33795;BME280;51430;52.242;21.118;2023-02-28T04:06:33;101885.92;;;-4.56;84.88
33795;BME280;51430;52.242;21.118;2023-02-28T04:09:20;101882.30;;;-4.58;85.09
33795;BME280;51430;52.242;21.118;2023-02-28T04:12:07;101881.31;;;-4.56;85.40
33795;BME280;51430;52.242;21.118;2023-02-28T04:14:53;101882.86;;;-4.56;85.24
33795;BME280;51430;52.242;21.118;2023-02-28T04:17:40;101885.08;;;-4.55;85.57
33795;BME280;51430;52.242;21.118;2023-02-28T04:20:27;101881.84;;;-4.56;85.35
33795;BME280;51430;52.242;21.118;2023-02-28T04:23:13;101884.73;;;-4.56;85.47
33795;BME280;51430;52.242;21.118;2023-02-28T04:26:00;101883.35;;;-4.58;85.34
33795;BME280;51430;52.242;21.118;2023-02-28T04:28:47;101883.48;;;-4.62;85.48
33795;BME280;51430;52.242;21.118;2023-02-28T04:31:33;101884.16;;;-4.62;85.55
33795;BME280;51430;52.242;21.118;2023-02-28T04:34:21;101886.55;;;-4.61;85.77
33795;BME280;51430;52.242;21.118;2023-02-28T04:37:08;101886.38;;;-4.60;85.77
33795;BME280;51430;52.242;21.118;2023-02-28T04:39:59;101886.55;;;-4.60;85.75
33795;BME280;51430;52.242;21.118;2023-02-28T04:42:45;101884.98;;;-4.65;85.77
33795;BME280;51430;52.242;21.118;2023-02-28T04:45:32;101884.46;;;-4.65;85.88
33795;BME280;51430;52.242;21.118;2023-02-28T04:48:20;101887.48;;;-4.69;85.98
33795;BME280;51430;52.242;21.118;2023-02-28T04:51:09;101888.67;;;-4.69;86.08
33795;BME280;51430;52.242;21.118;2023-02-28T04:53:56;101890.69;;;-4.71;86.04
33795;BME280;51430;52.242;21.118;2023-02-28T04:56:43;101890.69;;;-4.70;86.19
33795;BME280;51430;52.242;21.118;2023-02-28T04:59:30;101887.66;;;-4.68;86.27
33795;BME280;51430;52.242;21.118;2023-02-28T05:02:16;101891.77;;;-4.66;86.15
33795;BME280;51430;52.242;21.118;2023-02-28T05:05:03;101893.49;;;-4.64;86.16
33795;BME280;51430;52.242;21.118;2023-02-28T05:07:50;101896.85;;;-4.68;85.96
33795;BME280;51430;52.242;21.118;2023-02-28T05:10:36;101897.35;;;-4.70;85.96
33795;BME280;51430;52.242;21.118;2023-02-28T05:13:23;101902.43;;;-4.71;86.15
33795;BME280;51430;52.242;21.118;2023-02-28T05:16:10;101907.55;;;-4.68;86.35
33795;BME280;51430;52.242;21.118;2023-02-28T05:18:58;101914.20;;;-4.67;86.26
33795;BME280;51430;52.242;21.118;2023-02-28T05:21:54;101917.77;;;-4.67;86.28
33795;BME280;51430;52.242;21.118;2023-02-28T05:24:41;101923.91;;;-4.66;86.22
33795;BME280;51430;52.242;21.118;2023-02-28T05:27:29;101925.81;;;-4.63;86.35
33795;BME280;51430;52.242;21.118;2023-02-28T05:30:16;101930.81;;;-4.58;86.58
33795;BME280;51430;52.242;21.118;2023-02-28T05:33:03;101931.50;;;-4.57;86.24
33795;BME280;51430;52.242;21.118;2023-02-28T05:35:49;101935.30;;;-4.51;86.42
33795;BME280;51430;52.242;21.118;2023-02-28T05:38:36;101934.84;;;-4.46;86.28
33795;BME280;51430;52.242;21.118;2023-02-28T05:41:24;101934.90;;;-4.41;85.92
33795;BME280;51430;52.242;21.118;2023-02-28T05:44:12;101943.11;;;-4.36;85.94
33795;BME280;51430;52.242;21.118;2023-02-28T05:46:59;101944.56;;;-4.29;85.90
33795;BME280;51430;52.242;21.118;2023-02-28T05:49:46;101941.55;;;-4.24;85.91
33795;BME280;51430;52.242;21.118;2023-02-28T05:52:33;101945.52;;;-4.16;85.98
33795;BME280;51430;52.242;21.118;2023-02-28T05:55:19;101950.91;;;-4.06;85.62
33795;BME280;51430;52.242;21.118;2023-02-28T05:58:06;101953.09;;;-3.90;85.49
33795;BME280;51430;52.242;21.118;2023-02-28T06:00:53;101955.34;;;-3.66;85.34
33795;BME280;51430;52.242;21.118;2023-02-28T06:03:39;101958.61;;;-3.39;84.96
33795;BME280;51430;52.242;21.118;2023-02-28T06:06:26;101962.34;;;-3.15;84.14
33795;BME280;51430;52.242;21.118;2023-02-28T06:09:13;101959.61;;;-2.86;83.18
33795;BME280;51430;52.242;21.118;2023-02-28T06:12:02;101962.67;;;-2.44;82.43
33795;BME280;51430;52.242;21.118;2023-02-28T06:14:51;101962.95;;;-2.02;81.23
33795;BME280;51430;52.242;21.118;2023-02-28T06:17:38;101964.00;;;-1.65;79.55
33795;BME280;51430;52.242;21.118;2023-02-28T06:20:26;101965.88;;;-1.43;77.80
33795;BME280;51430;52.242;21.118;2023-02-28T06:23:15;101965.12;;;-1.04;76.75
33795;BME280;51430;52.242;21.118;2023-02-28T06:26:02;101966.52;;;-0.62;75.45
33795;BME280;51430;52.242;21.118;2023-02-28T06:28:49;101967.75;;;-0.31;73.60
33795;BME280;51430;52.242;21.118;2023-02-28T06:31:35;101965.73;;;0.14;72.38
33795;BME280;51430;52.242;21.118;2023-02-28T06:34:23;101969.16;;;0.58;71.39
33795;BME280;51430;52.242;21.118;2023-02-28T06:37:09;101959.59;;;0.88;70.27
33795;BME280;51430;52.242;21.118;2023-02-28T06:39:57;101954.90;;;1.11;68.99
33795;BME280;51430;52.242;21.118;2023-02-28T06:42:44;101953.59;;;1.47;67.97
33795;BME280;51430;52.242;21.118;2023-02-28T06:45:30;101952.80;;;1.68;66.73
33795;BME280;51430;52.242;21.118;2023-02-28T06:48:17;101947.19;;;1.88;65.93
33795;BME280;51430;52.242;21.118;2023-02-28T06:51:07;101944.23;;;2.43;64.40
33795;BME280;51430;52.242;21.118;2023-02-28T06:53:53;101944.11;;;2.99;63.19
33795;BME280;51430;52.242;21.118;2023-02-28T06:56:40;101941.89;;;3.23;61.99
33795;BME280;51430;52.242;21.118;2023-02-28T06:59:27;101942.36;;;3.25;61.86
33795;BME280;51430;52.242;21.118;2023-02-28T07:02:14;101939.39;;;3.20;62.49
33795;BME280;51430;52.242;21.118;2023-02-28T07:05:01;101934.18;;;3.21;61.73
33795;BME280;51430;52.242;21.118;2023-02-28T07:07:47;101931.98;;;3.53;60.04
33795;BME280;51430;52.242;21.118;2023-02-28T07:10:38;101936.89;;;3.79;58.51
33795;BME280;51430;52.242;21.118;2023-02-28T07:13:25;101936.77;;;3.91;57.78
33795;BME280;51430;52.242;21.118;2023-02-28T07:16:13;101937.29;;;3.92;57.08
33795;BME280;51430;52.242;21.118;2023-02-28T07:19:00;101941.43;;;4.07;56.51
33795;BME280;51430;52.242;21.118;2023-02-28T07:21:47;101941.92;;;4.44;56.45
33795;BME280;51430;52.242;21.118;2023-02-28T07:24:34;101942.60;;;4.51;54.79
33795;BME280;51430;52.242;21.118;2023-02-28T07:27:21;101944.77;;;4.26;52.94
33795;BME280;51430;52.242;21.118;2023-02-28T07:30:12;101938.36;;;4.34;52.98
33795;BME280;51430;52.242;21.118;2023-02-28T07:34:33;101936.71;;;4.51;51.10
33795;BME280;51430;52.242;21.118;2023-02-28T07:37:20;101928.84;;;4.69;51.58
33795;BME280;51430;52.242;21.118;2023-02-28T07:40:09;101928.45;;;5.08;49.88
33795;BME280;51430;52.242;21.118;2023-02-28T07:42:59;101927.54;;;4.91;48.90
33795;BME280;51430;52.242;21.118;2023-02-28T07:45:46;101929.96;;;5.27;48.73
33795;BME280;51430;52.242;21.118;2023-02-28T07:48:33;101933.76;;;5.85;47.48
33795;BME280;51430;52.242;21.118;2023-02-28T07:51:20;101937.63;;;6.12;46.74
33795;BME280;51430;52.242;21.118;2023-02-28T07:54:07;101937.00;;;6.61;46.76
33795;BME280;51430;52.242;21.118;2023-02-28T07:56:53;101939.80;;;6.96;45.25
33795;BME280;51430;52.242;21.118;2023-02-28T07:59:39;101938.39;;;7.56;44.28
33795;BME280;51430;52.242;21.118;2023-02-28T08:02:26;101942.60;;;7.78;42.13
33795;BME280;51430;52.242;21.118;2023-02-28T08:05:13;101948.40;;;7.49;41.65
33795;BME280;51430;52.242;21.118;2023-02-28T08:08:00;101951.09;;;7.00;41.87
33795;BME280;51430;52.242;21.118;2023-02-28T08:10:47;101947.45;;;7.28;41.97
33795;BME280;51430;52.242;21.118;2023-02-28T08:13:33;101949.41;;;7.26;41.94
33795;BME280;51430;52.242;21.118;2023-02-28T08:16:20;101949.71;;;7.32;41.19
33795;BME280;51430;52.242;21.118;2023-02-28T08:19:08;101946.55;;;7.28;40.47
33795;BME280;51430;52.242;21.118;2023-02-28T08:21:55;101949.20;;;7.18;41.22
33795;BME280;51430;52.242;21.118;2023-02-28T08:24:42;101944.69;;;7.14;40.40
33795;BME280;51430;52.242;21.118;2023-02-28T08:27:29;101944.77;;;6.82;40.76
33795;BME280;51430;52.242;21.118;2023-02-28T08:30:16;101939.66;;;7.23;40.46
33795;BME280;51430;52.242;21.118;2023-02-28T08:33:02;101941.64;;;7.76;40.39
33795;BME280;51430;52.242;21.118;2023-02-28T08:35:53;101942.00;;;8.58;39.97
33795;BME280;51430;52.242;21.118;2023-02-28T08:38:40;101944.98;;;9.16;39.14
33795;BME280;51430;52.242;21.118;2023-02-28T08:41:26;101945.92;;;9.72;38.80
33795;BME280;51430;52.242;21.118;2023-02-28T08:44:13;101949.62;;;10.04;37.66
33795;BME280;51430;52.242;21.118;2023-02-28T08:47:00;101950.00;;;10.14;37.36
33795;BME280;51430;52.242;21.118;2023-02-28T08:49:47;101947.46;;;10.01;36.47
33795;BME280;51430;52.242;21.118;2023-02-28T08:52:34;101948.80;;;10.28;36.03
33795;BME280;51430;52.242;21.118;2023-02-28T08:55:20;101948.98;;;9.92;35.44
33795;BME280;51430;52.242;21.118;2023-02-28T08:58:07;101952.02;;;9.41;36.36
33795;BME280;51430;52.242;21.118;2023-02-28T09:00:54;101952.83;;;9.16;36.51
33795;BME280;51430;52.242;21.118;2023-02-28T09:03:42;101951.79;;;9.16;36.68
33795;BME280;51430;52.242;21.118;2023-02-28T09:06:28;101954.14;;;8.74;37.39
33795;BME280;51430;52.242;21.118;2023-02-28T09:09:15;101948.33;;;9.04;36.85
33795;BME280;51430;52.242;21.118;2023-02-28T09:12:02;101948.60;;;9.66;36.72
33795;BME280;51430;52.242;21.118;2023-02-28T09:14:49;101955.63;;;10.17;36.57
33795;BME280;51430;52.242;21.118;2023-02-28T09:17:36;101957.63;;;10.94;35.79
33795;BME280;51430;52.242;21.118;2023-02-28T09:20:23;101959.42;;;11.42;34.73
33795;BME280;51430;52.242;21.118;2023-02-28T09:23:10;101962.80;;;11.51;34.48
33795;BME280;51430;52.242;21.118;2023-02-28T09:26:06;101968.52;;;11.75;33.87
33795;BME280;51430;52.242;21.118;2023-02-28T09:30:45;101968.90;;;11.58;33.52
33795;BME280;51430;52.242;21.118;2023-02-28T09:33:32;101970.15;;;11.70;33.83
33795;BME280;51430;52.242;21.118;2023-02-28T09:36:21;101968.55;;;12.06;33.18
33795;BME280;51430;52.242;21.118;2023-02-28T09:39:11;101966.45;;;11.84;32.01
33795;BME280;51430;52.242;21.118;2023-02-28T09:41:58;101958.64;;;11.08;32.61
33795;BME280;51430;52.242;21.118;2023-02-28T09:44:49;101962.18;;;10.60;33.56
33795;BME280;51430;52.242;21.118;2023-02-28T09:47:43;101965.04;;;11.68;33.21
33795;BME280;51430;52.242;21.118;2023-02-28T09:50:48;101963.30;;;12.66;32.04
33795;BME280;51430;52.242;21.118;2023-02-28T09:53:37;101961.43;;;13.03;31.05
33795;BME280;51430;52.242;21.118;2023-02-28T09:56:54;101965.10;;;13.60;30.50
33795;BME280;51430;52.242;21.118;2023-02-28T09:59:59;101966.36;;;14.03;30.22
33795;BME280;51430;52.242;21.118;2023-02-28T10:03:30;101967.08;;;14.40;30.30
33795;BME280;51430;52.242;21.118;2023-02-28T10:06:20;101972.17;;;14.66;29.42
33795;BME280;51430;52.242;21.118;2023-02-28T10:09:19;101978.89;;;14.81;29.41
33795;BME280;51430;52.242;21.118;2023-02-28T10:12:09;101976.45;;;14.55;29.18
33795;BME280;51430;52.242;21.118;2023-02-28T10:14:59;101969.72;;;14.24;28.94
33795;BME280;51430;52.242;21.118;2023-02-28T10:22:16;101973.90;;;15.55;29.01
33795;BME280;51430;52.242;21.118;2023-02-28T10:25:17;101976.69;;;16.12;27.49
33795;BME280;51430;52.242;21.118;2023-02-28T10:28:14;101974.40;;;16.10;26.93
33795;BME280;51430;52.242;21.118;2023-02-28T10:31:02;101970.95;;;16.16;27.50
33795;BME280;51430;52.242;21.118;2023-02-28T10:33:49;101969.74;;;16.23;27.22
33795;BME280;51430;52.242;21.118;2023-02-28T10:36:36;101971.27;;;15.92;26.55
33795;BME280;51430;52.242;21.118;2023-02-28T10:42:26;101963.65;;;14.78;27.80
33795;BME280;51430;52.242;21.118;2023-02-28T10:45:15;101964.73;;;14.83;28.37
33795;BME280;51430;52.242;21.118;2023-02-28T10:50:56;101961.08;;;15.70;27.74
33795;BME280;51430;52.242;21.118;2023-02-28T10:53:54;101964.45;;;16.37;26.53
33795;BME280;51430;52.242;21.118;2023-02-28T11:00:25;101957.61;;;15.32;26.59
33795;BME280;51430;52.242;21.118;2023-02-28T11:03:31;101951.63;;;14.27;27.74
33795;BME280;51430;52.242;21.118;2023-02-28T11:06:24;101946.19;;;13.09;29.09
33795;BME280;51430;52.242;21.118;2023-02-28T11:09:29;101936.17;;;12.89;29.75
33795;BME280;51430;52.242;21.118;2023-02-28T11:18:21;101928.81;;;15.79;27.01
33795;BME280;51430;52.242;21.118;2023-02-28T11:21:10;101922.67;;;15.34;26.84
33795;BME280;51430;52.242;21.118;2023-02-28T11:24:07;101921.48;;;15.34;27.29
33795;BME280;51430;52.242;21.118;2023-02-28T11:27:00;101912.79;;;14.75;27.47
33795;BME280;51430;52.242;21.118;2023-02-28T11:29:47;101907.39;;;14.30;28.52
33795;BME280;51430;52.242;21.118;2023-02-28T11:32:48;101909.39;;;15.50;27.96
33795;BME280;51430;52.242;21.118;2023-02-28T11:35:38;101907.67;;;16.57;26.08
33795;BME280;51430;52.242;21.118;2023-02-28T11:38:26;101904.86;;;16.93;26.26
33795;BME280;51430;52.242;21.118;2023-02-28T11:44:39;101895.29;;;16.59;25.53
33795;BME280;51430;52.242;21.118;2023-02-28T11:56:40;101887.83;;;18.39;24.64
33795;BME280;51430;52.242;21.118;2023-02-28T11:59:33;101884.60;;;19.03;24.19
33795;BME280;51430;52.242;21.118;2023-02-28T12:02:29;101879.39;;;19.26;23.96
33795;BME280;51430;52.242;21.118;2023-02-28T12:05:27;101878.92;;;18.83;23.50
33795;BME280;51430;52.242;21.118;2023-02-28T12:08:26;101875.63;;;17.47;24.28
33795;BME280;51430;52.242;21.118;2023-02-28T12:20:38;101855.26;;;16.44;26.27
33795;BME280;51430;52.242;21.118;2023-02-28T12:23:52;101858.53;;;17.71;25.24
33795;BME280;51430;52.242;21.118;2023-02-28T12:26:45;101855.38;;;16.97;25.16
33795;BME280;51430;52.242;21.118;2023-02-28T12:29:42;101852.77;;;16.54;25.34
33795;BME280;51430;52.242;21.118;2023-02-28T12:32:35;101852.05;;;15.73;26.24
33795;BME280;51430;52.242;21.118;2023-02-28T12:35:27;101849.02;;;15.20;26.82
33795;BME280;51430;52.242;21.118;2023-02-28T12:38:25;101846.51;;;16.04;26.36
33795;BME280;51430;52.242;21.118;2023-02-28T12:41:39;101841.40;;;16.80;25.98
33795;BME280;51430;52.242;21.118;2023-02-28T12:44:37;101842.03;;;17.07;25.21
33795;BME280;51430;52.242;21.118;2023-02-28T12:47:27;101832.90;;;17.11;25.70
33795;BME280;51430;52.242;21.118;2023-02-28T12:50:14;101832.36;;;17.97;25.39
33795;BME280;51430;52.242;21.118;2023-02-28T12:53:14;101831.99;;;18.46;24.84
33795;BME280;51430;52.242;21.118;2023-02-28T12:56:17;101832.70;;;18.82;24.29
33795;BME280;51430;52.242;21.118;2023-02-28T12:59:52;101838.54;;;19.12;24.23
33795;BME280;51430;52.242;21.118;2023-02-28T13:09:02;101834.55;;;18.58;23.52
33795;BME280;51430;52.242;21.118;2023-02-28T13:11:54;101825.59;;;17.10;24.31
33795;BME280;51430;52.242;21.118;2023-02-28T13:14:42;101820.58;;;16.33;25.27
33795;BME280;51430;52.242;21.118;2023-02-28T13:17:28;101813.73;;;16.03;25.44
33795;BME280;51430;52.242;21.118;2023-02-28T13:20:36;101812.16;;;16.75;25.89
33795;BME280;51430;52.242;21.118;2023-02-28T13:23:39;101806.32;;;17.80;25.32
33795;BME280;51430;52.242;21.118;2023-02-28T13:29:37;101807.67;;;18.39;23.78
33795;BME280;51430;52.242;21.118;2023-02-28T13:35:14;101799.89;;;19.17;23.57
33795;BME280;51430;52.242;21.118;2023-02-28T13:38:33;101800.18;;;19.42;23.43
33795;BME280;51430;52.242;21.118;2023-02-28T13:44:22;101794.52;;;20.46;21.99
33795;BME280;51430;52.242;21.118;2023-02-28T13:56:27;101779.17;;;21.67;21.19
33795;BME280;51430;52.242;21.118;2023-02-28T13:59:29;101779.73;;;22.09;20.94
33795;BME280;51430;52.242;21.118;2023-02-28T14:02:48;101781.95;;;21.53;21.14
33795;BME280;51430;52.242;21.118;2023-02-28T14:05:41;101781.73;;;22.05;20.68
33795;BME280;51430;52.242;21.118;2023-02-28T14:08:28;101776.39;;;20.68;21.04
33795;BME280;51430;52.242;21.118;2023-02-28T14:11:34;101765.96;;;19.56;22.19
33795;BME280;51430;52.242;21.118;2023-02-28T14:17:24;101759.14;;;19.28;23.34
33795;BME280;51430;52.242;21.118;2023-02-28T14:20:15;101754.46;;;19.05;23.40
33795;BME280;51430;52.242;21.118;2023-02-28T14:23:10;101748.95;;;19.62;23.10
33795;BME280;51430;52.242;21.118;2023-02-28T14:26:14;101749.48;;;19.32;23.39
33795;BME280;51430;52.242;21.118;2023-02-28T14:32:25;101745.98;;;19.73;22.96
33795;BME280;51430;52.242;21.118;2023-02-28T14:38:06;101748.03;;;21.46;21.77
33795;BME280;51430;52.242;21.118;2023-02-28T14:40:55;101745.52;;;22.17;21.35
33795;BME280;51430;52.242;21.118;2023-02-28T14:43:58;101741.30;;;21.52;21.49
33795;BME280;51430;52.242;21.118;2023-02-28T14:46:49;101738.53;;;20.44;22.30
33795;BME280;51430;52.242;21.118;2023-02-28T14:49:41;101735.85;;;20.11;22.86
33795;BME280;51430;52.242;21.118;2023-02-28T14:52:32;101733.48;;;19.27;22.86
33795;BME280;51430;52.242;21.118;2023-02-28T14:55:20;101728.52;;;17.59;24.09
33795;BME280;51430;52.242;21.118;2023-02-28T14:58:22;101729.75;;;16.03;25.87
33795;BME280;51430;52.242;21.118;2023-02-28T15:01:10;101727.63;;;14.57;27.55
33795;BME280;51430;52.242;21.118;2023-02-28T15:04:02;101724.13;;;14.49;28.33
33795;BME280;51430;52.242;21.118;2023-02-28T15:07:07;101726.10;;;14.51;28.30
33795;BME280;51430;52.242;21.118;2023-02-28T15:13:12;101715.91;;;14.09;28.71
33795;BME280;51430;52.242;21.118;2023-02-28T15:16:05;101714.75;;;13.16;30.32
33795;BME280;51430;52.242;21.118;2023-02-28T15:18:56;101718.89;;;12.63;31.23
33795;BME280;51430;52.242;21.118;2023-02-28T15:21:48;101716.98;;;12.03;32.00
33795;BME280;51430;52.242;21.118;2023-02-28T15:24:42;101717.73;;;11.27;32.90
33795;BME280;51430;52.242;21.118;2023-02-28T15:27:32;101721.15;;;10.28;34.48
33795;BME280;51430;52.242;21.118;2023-02-28T15:30:24;101714.44;;;9.62;35.92
33795;BME280;51430;52.242;21.118;2023-02-28T15:33:27;101707.77;;;9.11;36.82
33795;BME280;51430;52.242;21.118;2023-02-28T15:36:16;101709.06;;;8.65;37.70
33795;BME280;51430;52.242;21.118;2023-02-28T15:39:23;101707.73;;;8.15;38.77
33795;BME280;51430;52.242;21.118;2023-02-28T15:42:11;101705.23;;;7.67;39.81
33795;BME280;51430;52.242;21.118;2023-02-28T15:49:00;101706.33;;;6.99;40.38
33795;BME280;51430;52.242;21.118;2023-02-28T15:51:48;101705.02;;;6.79;41.10
33795;BME280;51430;52.242;21.118;2023-02-28T15:54:37;101709.27;;;6.54;41.73
33795;BME280;51430;52.242;21.118;2023-02-28T15:57:26;101707.36;;;6.31;42.51
33795;BME280;51430;52.242;21.118;2023-02-28T16:00:19;101710.29;;;6.12;43.14
33795;BME280;51430;52.242;21.118;2023-02-28T16:03:32;101708.44;;;5.96;43.42
33795;BME280;51430;52.242;21.118;2023-02-28T16:09:23;101711.30;;;5.57;44.90
33795;BME280;51430;52.242;21.118;2023-02-28T16:12:11;101712.88;;;5.41;45.60
33795;BME280;51430;52.242;21.118;2023-02-28T16:15:28;101715.29;;;5.21;46.48
33795;BME280;51430;52.242;21.118;2023-02-28T16:18:49;101715.23;;;4.84;47.97
33795;BME280;51430;52.242;21.118;2023-02-28T16:21:36;101715.98;;;4.47;48.78
33795;BME280;51430;52.242;21.118;2023-02-28T16:24:27;101716.67;;;4.42;49.53
33795;BME280;51430;52.242;21.118;2023-02-28T16:27:31;101714.03;;;4.25;50.73
33795;BME280;51430;52.242;21.118;2023-02-28T16:30:22;101710.46;;;4.04;51.34
33795;BME280;51430;52.242;21.118;2023-02-28T16:33:09;101710.42;;;3.99;51.84
33795;BME280;51430;52.242;21.118;2023-02-28T16:35:56;101716.20;;;3.84;52.45
33795;BME280;51430;52.242;21.118;2023-02-28T16:38:43;101713.29;;;3.83;52.71